sensor_id;sensor_type;location;lat;lon;timestamp;temperature;humidity
24664;DHT22;12791;50.992;13.788;2023-09-30T03:01:06;17.40;99.90
24664;DHT22;12791;50.992;13.788;2023-09-30T03:03:35;17.30;99.90
24664;DHT22;12791;50.992;13.788;2023-09-30T03:06:02;17.40;99.90
24664;DHT22;12791;50.992;13.788;2023-09-30T03:08:29;17.30;99.90
24664;DHT22;12791;50.992;13.788;2023-09-30T03:10:55;17.30;99.90
24664;DHT22;12791;50.992;13.788;2023-09-30T03:13:22;17.30;99.90
24664;DHT22;12791;50.992;13.788;2023-09-30T03:15:49;17.30;99.90
24664;DHT22;12791;50.992;13.788;2023-09-30T03:18:19;17.20;99.90
24664;DHT22;12791;50.992;13.788;2023-09-30T03:20:51;17.20;99.90
24664;DHT22;12791;50.992;13.788;2023-09-30T03:23:21;17.10;99.90
24664;DHT22;12791;50.992;13.788;2023-09-30T03:25:50;17.10;99.90
24664;DHT22;12791;50.992;13.788;2023-09-30T03:28:17;17.00;99.90
24664;DHT22;12791;50.992;13.788;2023-09-30T03:30:43;17.00;99.90
24664;DHT22;12791;50.992;13.788;2023-09-30T03:33:11;17.00;99.90
24664;DHT22;12791;50.992;13.788;2023-09-30T03:35:40;16.90;99.90
24664;DHT22;12791;50.992;13.788;2023-09-30T03:38:07;16.90;99.90
24664;DHT22;12791;50.992;13.788;2023-09-30T03:40:35;16.90;99.90
24664;DHT22;12791;50.992;13.788;2023-09-30T03:43:04;17.00;99.90
24664;DHT22;12791;50.992;13.788;2023-09-30T03:45:31;16.90;99.90
24664;DHT22;12791;50.992;13.788;2023-09-30T03:47:58;16.80;99.90
24664;DHT22;12791;50.992;13.788;2023-09-30T03:50:27;16.80;99.90
24664;DHT22;12791;50.992;13.788;2023-09-30T03:53:02;16.80;99.90
24664;DHT22;12791;50.992;13.788;2023-09-30T03:55:30;16.80;99.90
24664;DHT22;12791;50.992;13.788;2023-09-30T03:57:57;16.80;99.90
24664;DHT22;12791;50.992;13.788;2023-09-30T04:00:24;16.70;99.90
24664;DHT22;12791;50.992;13.788;2023-09-30T04:02:51;16.70;99.90
24664;DHT22;12791;50.992;13.788;2023-09-30T04:05:20;16.70;99.90
24664;DHT22;12791;50.992;13.788;2023-09-30T04:07:53;16.70;99.90
24664;DHT22;12791;50.992;13.788;2023-09-30T04:10:21;16.70;99.90
24664;DHT22;12791;50.992;13.788;2023-09-30T04:12:49;16.70;99.90
24664;DHT22;12791;50.992;13.788;2023-09-30T04:15:16;16.70;99.90
24664;DHT22;12791;50.992;13.788;2023-09-30T04:17:43;16.60;99.90
24664;DHT22;12791;50.992;13.788;2023-09-30T04:20:10;16.60;99.90
24664;DHT22;12791;50.992;13.788;2023-09-30T04:22:42;16.60;99.90
24664;DHT22;12791;50.992;13.788;2023-09-30T04:25:11;16.50;99.90
24664;DHT22;12791;50.992;13.788;2023-09-30T04:27:39;16.50;99.90
24664;DHT22;12791;50.992;13.788;2023-09-30T04:30:07;16.50;99.90
24664;DHT22;12791;50.992;13.788;2023-09-30T04:32:36;16.50;99.90
24664;DHT22;12791;50.992;13.788;2023-09-30T04:35:04;16.50;99.90
24664;DHT22;12791;50.992;13.788;2023-09-30T04:37:31;16.50;99.90
24664;DHT22;12791;50.992;13.788;2023-09-30T04:39:57;16.40;99.90
24664;DHT22;12791;50.992;13.788;2023-09-30T04:42:24;16.40;99.90
24664;DHT22;12791;50.992;13.788;2023-09-30T04:44:52;16.30;99.90
24664;DHT22;12791;50.992;13.788;2023-09-30T04:47:19;16.30;99.90
24664;DHT22;12791;50.992;13.788;2023-09-30T04:49:47;16.30;99.90
24664;DHT22;12791;50.992;13.788;2023-09-30T04:52:13;16.30;99.90
24664;DHT22;12791;50.992;13.788;2023-09-30T04:54:40;16.30;99.90
24664;DHT22;12791;50.992;13.788;2023-09-30T04:57:07;16.30;99.90
24664;DHT22;12791;50.992;13.788;2023-09-30T04:59:33;16.30;99.90
24664;DHT22;12791;50.992;13.788;2023-09-30T05:02:01;16.20;99.90
24664;DHT22;12791;50.992;13.788;2023-09-30T05:04:29;16.20;99.90
24664;DHT22;12791;50.992;13.788;2023-09-30T05:06:56;16.10;99.90
24664;DHT22;12791;50.992;13.788;2023-09-30T05:09:22;16.10;99.90
24664;DHT22;12791;50.992;13.788;2023-09-30T05:11:51;16.10;99.90
24664;DHT22;12791;50.992;13.788;2023-09-30T05:14:19;16.00;99.90
24664;DHT22;12791;50.992;13.788;2023-09-30T05:16:46;16.00;99.90
24664;DHT22;12791;50.992;13.788;2023-09-30T05:19:14;16.00;99.90
24664;DHT22;12791;50.992;13.788;2023-09-30T05:21:42;16.00;99.90
24664;DHT22;12791;50.992;13.788;2023-09-30T05:24:10;16.10;99.90
24664;DHT22;12791;50.992;13.788;2023-09-30T05:26:37;16.10;99.90
24664;DHT22;12791;50.992;13.788;2023-09-30T05:29:04;16.00;99.90
24664;DHT22;12791;50.992;13.788;2023-09-30T05:31:31;16.10;99.90
24664;DHT22;12791;50.992;13.788;2023-09-30T05:33:57;16.10;99.90
24664;DHT22;12791;50.992;13.788;2023-09-30T05:36:25;16.10;99.90
24664;DHT22;12791;50.992;13.788;2023-09-30T05:38:52;16.10;99.90
24664;DHT22;12791;50.992;13.788;2023-09-30T05:41:19;16.10;99.90
24664;DHT22;12791;50.992;13.788;2023-09-30T05:43:46;16.10;99.90
24664;DHT22;12791;50.992;13.788;2023-09-30T05:46:13;16.10;99.90
24664;DHT22;12791;50.992;13.788;2023-09-30T05:48:40;16.20;99.90
24664;DHT22;12791;50.992;13.788;2023-09-30T05:51:07;16.20;99.90
24664;DHT22;12791;50.992;13.788;2023-09-30T05:53:35;16.20;99.90
24664;DHT22;12791;50.992;13.788;2023-09-30T05:56:01;16.20;99.90
24664;DHT22;12791;50.992;13.788;2023-09-30T05:58:29;16.20;99.90
24664;DHT22;12791;50.992;13.788;2023-09-30T06:00:56;16.20;99.90
24664;DHT22;12791;50.992;13.788;2023-09-30T06:03:23;16.20;99.90
24664;DHT22;12791;50.992;13.788;2023-09-30T06:05:49;16.20;99.90
24664;DHT22;12791;50.992;13.788;2023-09-30T06:08:16;16.20;99.90
24664;DHT22;12791;50.992;13.788;2023-09-30T06:10:44;16.20;99.90
24664;DHT22;12791;50.992;13.788;2023-09-30T06:13:12;16.20;99.90
24664;DHT22;12791;50.992;13.788;2023-09-30T06:15:41;16.20;99.90
24664;DHT22;12791;50.992;13.788;2023-09-30T06:18:09;16.20;99.90
24664;DHT22;12791;50.992;13.788;2023-09-30T06:20:38;16.10;99.90
24664;DHT22;12791;50.992;13.788;2023-09-30T06:23:06;16.10;99.90
24664;DHT22;12791;50.992;13.788;2023-09-30T06:25:33;16.00;99.90
24664;DHT22;12791;50.992;13.788;2023-09-30T06:28:02;16.10;99.90
24664;DHT22;12791;50.992;13.788;2023-09-30T06:30:30;16.00;99.90
24664;DHT22;12791;50.992;13.788;2023-09-30T06:32:58;16.00;99.90
24664;DHT22;12791;50.992;13.788;2023-09-30T06:35:25;16.00;99.90
24664;DHT22;12791;50.992;13.788;2023-09-30T06:37:52;16.00;99.90
24664;DHT22;12791;50.992;13.788;2023-09-30T06:40:19;16.00;99.90
24664;DHT22;12791;50.992;13.788;2023-09-30T06:42:46;16.00;99.90
24664;DHT22;12791;50.992;13.788;2023-09-30T06:45:14;16.10;99.90
24664;DHT22;12791;50.992;13.788;2023-09-30T06:47:41;16.10;99.90
24664;DHT22;12791;50.992;13.788;2023-09-30T06:50:10;16.20;99.90
24664;DHT22;12791;50.992;13.788;2023-09-30T06:52:39;16.30;99.90
24664;DHT22;12791;50.992;13.788;2023-09-30T06:55:07;16.30;99.90
24664;DHT22;12791;50.992;13.788;2023-09-30T06:57:35;16.30;99.90
24664;DHT22;12791;50.992;13.788;2023-09-30T07:00:05;16.30;99.90
24664;DHT22;12791;50.992;13.788;2023-09-30T07:02:35;16.40;99.90
24664;DHT22;12791;50.992;13.788;2023-09-30T07:05:05;16.40;99.90
24664;DHT22;12791;50.992;13.788;2023-09-30T07:07:31;16.40;99.90
24664;DHT22;12791;50.992;13.788;2023-09-30T07:09:58;16.40;99.90
24664;DHT22;12791;50.992;13.788;2023-09-30T07:12:25;16.30;99.90
24664;DHT22;12791;50.992;13.788;2023-09-30T07:14:52;16.40;99.90
24664;DHT22;12791;50.992;13.788;2023-09-30T07:17:19;16.30;99.90
24664;DHT22;12791;50.992;13.788;2023-09-30T07:19:48;16.40;99.90
24664;DHT22;12791;50.992;13.788;2023-09-30T07:22:16;16.40;99.90
24664;DHT22;12791;50.992;13.788;2023-09-30T07:24:44;16.40;99.90
24664;DHT22;12791;50.992;13.788;2023-09-30T07:27:11;16.50;99.90
24664;DHT22;12791;50.992;13.788;2023-09-30T07:29:38;16.60;99.90
24664;DHT22;12791;50.992;13.788;2023-09-30T07:32:06;16.60;99.90
24664;DHT22;12791;50.992;13.788;2023-09-30T07:34:34;16.60;99.90
24664;DHT22;12791;50.992;13.788;2023-09-30T07:37:02;16.70;99.90
24664;DHT22;12791;50.992;13.788;2023-09-30T07:39:29;16.70;99.90
24664;DHT22;12791;50.992;13.788;2023-09-30T07:41:56;16.70;99.90
24664;DHT22;12791;50.992;13.788;2023-09-30T07:44:22;16.70;99.90
24664;DHT22;12791;50.992;13.788;2023-09-30T07:46:49;16.70;99.90
24664;DHT22;12791;50.992;13.788;2023-09-30T07:49:16;16.70;99.90
24664;DHT22;12791;50.992;13.788;2023-09-30T07:51:42;16.80;99.90
24664;DHT22;12791;50.992;13.788;2023-09-30T07:54:10;16.90;99.90
24664;DHT22;12791;50.992;13.788;2023-09-30T07:56:37;17.00;99.90
24664;DHT22;12791;50.992;13.788;2023-09-30T07:59:04;17.00;99.90
24664;DHT22;12791;50.992;13.788;2023-09-30T08:01:31;17.00;99.90
24664;DHT22;12791;50.992;13.788;2023-09-30T08:03:58;17.00;99.90
24664;DHT22;12791;50.992;13.788;2023-09-30T08:06:24;17.10;99.90
24664;DHT22;12791;50.992;13.788;2023-09-30T08:08:51;17.10;99.90
24664;DHT22;12791;50.992;13.788;2023-09-30T08:11:19;17.10;99.90
24664;DHT22;12791;50.992;13.788;2023-09-30T08:13:46;17.10;99.90
24664;DHT22;12791;50.992;13.788;2023-09-30T08:16:13;17.10;99.90
24664;DHT22;12791;50.992;13.788;2023-09-30T08:18:40;17.10;99.90
24664;DHT22;12791;50.992;13.788;2023-09-30T08:21:09;17.20;99.90
24664;DHT22;12791;50.992;13.788;2023-09-30T08:23:36;17.20;97.90
24664;DHT22;12791;50.992;13.788;2023-09-30T08:26:04;17.10;95.90
24664;DHT22;12791;50.992;13.788;2023-09-30T08:28:32;17.10;95.90
24664;DHT22;12791;50.992;13.788;2023-09-30T08:31:02;17.00;94.70
24664;DHT22;12791;50.992;13.788;2023-09-30T08:33:30;17.00;95.30
24664;DHT22;12791;50.992;13.788;2023-09-30T08:36:00;17.00;95.60
24664;DHT22;12791;50.992;13.788;2023-09-30T08:38:32;17.00;94.50
24664;DHT22;12791;50.992;13.788;2023-09-30T08:40:59;17.00;94.50
24664;DHT22;12791;50.992;13.788;2023-09-30T08:43:28;17.00;95.40
24664;DHT22;12791;50.992;13.788;2023-09-30T08:45:59;17.10;95.00
24664;DHT22;12791;50.992;13.788;2023-09-30T08:48:27;17.10;93.30
24664;DHT22;12791;50.992;13.788;2023-09-30T08:50:54;17.10;92.30
24664;DHT22;12791;50.992;13.788;2023-09-30T08:53:22;17.10;91.20
24664;DHT22;12791;50.992;13.788;2023-09-30T08:55:53;17.10;91.90
24664;DHT22;12791;50.992;13.788;2023-09-30T08:58:20;17.10;91.50
24664;DHT22;12791;50.992;13.788;2023-09-30T09:00:50;17.10;90.70
24664;DHT22;12791;50.992;13.788;2023-09-30T09:03:19;17.10;91.00
24664;DHT22;12791;50.992;13.788;2023-09-30T09:05:46;17.20;91.20
24664;DHT22;12791;50.992;13.788;2023-09-30T09:08:13;17.20;89.40
24664;DHT22;12791;50.992;13.788;2023-09-30T09:10:53;17.20;89.00
24664;DHT22;12791;50.992;13.788;2023-09-30T09:13:21;17.20;88.60
24664;DHT22;12791;50.992;13.788;2023-09-30T09:15:48;17.20;88.40
24664;DHT22;12791;50.992;13.788;2023-09-30T09:18:32;17.30;87.90
24664;DHT22;12791;50.992;13.788;2023-09-30T09:21:09;17.30;86.80
24664;DHT22;12791;50.992;13.788;2023-09-30T09:23:40;17.40;87.00
24664;DHT22;12791;50.992;13.788;2023-09-30T09:26:08;17.40;86.40
24664;DHT22;12791;50.992;13.788;2023-09-30T09:28:35;17.40;86.00
24664;DHT22;12791;50.992;13.788;2023-09-30T09:31:19;17.40;82.90
24664;DHT22;12791;50.992;13.788;2023-09-30T09:33:47;17.40;82.10
24664;DHT22;12791;50.992;13.788;2023-09-30T09:36:15;17.40;82.30
24664;DHT22;12791;50.992;13.788;2023-09-30T09:38:46;17.50;82.90
24664;DHT22;12791;50.992;13.788;2023-09-30T09:41:14;17.50;83.90
24664;DHT22;12791;50.992;13.788;2023-09-30T09:43:41;17.60;84.80
24664;DHT22;12791;50.992;13.788;2023-09-30T09:46:09;17.50;83.80
24664;DHT22;12791;50.992;13.788;2023-09-30T09:48:36;17.50;80.10
24664;DHT22;12791;50.992;13.788;2023-09-30T09:51:05;17.40;76.50
24664;DHT22;12791;50.992;13.788;2023-09-30T09:53:35;17.40;77.40
24664;DHT22;12791;50.992;13.788;2023-09-30T09:56:03;17.40;79.90
24664;DHT22;12791;50.992;13.788;2023-09-30T09:58:33;17.40;81.50
24664;DHT22;12791;50.992;13.788;2023-09-30T10:01:01;17.40;81.00
24664;DHT22;12791;50.992;13.788;2023-09-30T10:03:28;17.50;81.50
24664;DHT22;12791;50.992;13.788;2023-09-30T10:05:56;17.50;79.70
24664;DHT22;12791;50.992;13.788;2023-09-30T10:08:37;17.60;80.00
24664;DHT22;12791;50.992;13.788;2023-09-30T10:11:06;17.70;79.70
24664;DHT22;12791;50.992;13.788;2023-09-30T10:13:52;17.70;78.50
24664;DHT22;12791;50.992;13.788;2023-09-30T10:16:47;17.70;77.30
24664;DHT22;12791;50.992;13.788;2023-09-30T10:19:15;17.60;76.50
24664;DHT22;12791;50.992;13.788;2023-09-30T10:24:44;17.60;73.60
24664;DHT22;12791;50.992;13.788;2023-09-30T10:27:31;17.60;71.80
24664;DHT22;12791;50.992;13.788;2023-09-30T10:29:59;17.50;72.20
24664;DHT22;12791;50.992;13.788;2023-09-30T10:35:44;17.60;74.20
24664;DHT22;12791;50.992;13.788;2023-09-30T10:38:39;17.50;74.00
24664;DHT22;12791;50.992;13.788;2023-09-30T10:41:48;17.60;73.60
24664;DHT22;12791;50.992;13.788;2023-09-30T10:44:34;17.60;69.40
24664;DHT22;12791;50.992;13.788;2023-09-30T10:47:34;17.60;68.20
24664;DHT22;12791;50.992;13.788;2023-09-30T10:50:01;17.60;68.00
24664;DHT22;12791;50.992;13.788;2023-09-30T10:52:30;17.70;68.10
24664;DHT22;12791;50.992;13.788;2023-09-30T10:55:02;17.70;69.10
24664;DHT22;12791;50.992;13.788;2023-09-30T10:57:31;17.90;69.20
24664;DHT22;12791;50.992;13.788;2023-09-30T11:00:08;18.00;69.50
24664;DHT22;12791;50.992;13.788;2023-09-30T11:02:48;18.00;68.70
24664;DHT22;12791;50.992;13.788;2023-09-30T11:05:14;18.10;67.10
24664;DHT22;12791;50.992;13.788;2023-09-30T11:07:41;18.20;66.10
24664;DHT22;12791;50.992;13.788;2023-09-30T11:10:12;18.10;66.80
24664;DHT22;12791;50.992;13.788;2023-09-30T11:12:54;18.10;67.40
24664;DHT22;12791;50.992;13.788;2023-09-30T11:15:22;18.10;68.50
24664;DHT22;12791;50.992;13.788;2023-09-30T11:17:48;18.10;68.00
24664;DHT22;12791;50.992;13.788;2023-09-30T11:20:16;18.10;67.90
24664;DHT22;12791;50.992;13.788;2023-09-30T11:22:43;18.20;66.40
24664;DHT22;12791;50.992;13.788;2023-09-30T11:25:15;18.20;65.20
24664;DHT22;12791;50.992;13.788;2023-09-30T11:27:43;18.20;64.10
24664;DHT22;12791;50.992;13.788;2023-09-30T11:30:12;18.30;64.10
24664;DHT22;12791;50.992;13.788;2023-09-30T11:32:40;18.30;63.80
24664;DHT22;12791;50.992;13.788;2023-09-30T11:35:09;18.40;62.30
24664;DHT22;12791;50.992;13.788;2023-09-30T11:37:36;18.40;61.50
24664;DHT22;12791;50.992;13.788;2023-09-30T11:40:11;18.50;60.00
24664;DHT22;12791;50.992;13.788;2023-09-30T11:42:38;18.50;59.30
24664;DHT22;12791;50.992;13.788;2023-09-30T11:45:19;18.50;57.40
24664;DHT22;12791;50.992;13.788;2023-09-30T11:47:47;18.60;56.30
24664;DHT22;12791;50.992;13.788;2023-09-30T11:50:14;18.60;56.20
24664;DHT22;12791;50.992;13.788;2023-09-30T11:52:44;18.70;56.50
24664;DHT22;12791;50.992;13.788;2023-09-30T11:55:12;18.70;56.40
24664;DHT22;12791;50.992;13.788;2023-09-30T11:57:39;18.70;55.70
24664;DHT22;12791;50.992;13.788;2023-09-30T12:00:07;18.80;55.40
24664;DHT22;12791;50.992;13.788;2023-09-30T12:02:40;18.90;55.70
24664;DHT22;12791;50.992;13.788;2023-09-30T12:05:07;18.90;55.50
24664;DHT22;12791;50.992;13.788;2023-09-30T12:07:37;19.00;56.10
24664;DHT22;12791;50.992;13.788;2023-09-30T12:10:04;19.00;55.50
24664;DHT22;12791;50.992;13.788;2023-09-30T12:12:31;19.00;55.60
24664;DHT22;12791;50.992;13.788;2023-09-30T12:14:57;19.00;55.50
24664;DHT22;12791;50.992;13.788;2023-09-30T12:17:24;19.00;55.00
24664;DHT22;12791;50.992;13.788;2023-09-30T12:19:52;19.00;54.60
24664;DHT22;12791;50.992;13.788;2023-09-30T12:22:19;19.00;54.80
24664;DHT22;12791;50.992;13.788;2023-09-30T12:24:46;19.00;53.60
24664;DHT22;12791;50.992;13.788;2023-09-30T12:27:13;19.00;53.90
24664;DHT22;12791;50.992;13.788;2023-09-30T12:29:42;18.90;53.90
24664;DHT22;12791;50.992;13.788;2023-09-30T12:32:09;18.80;54.10
24664;DHT22;12791;50.992;13.788;2023-09-30T12:34:36;18.90;54.60
24664;DHT22;12791;50.992;13.788;2023-09-30T12:37:04;18.80;54.30
24664;DHT22;12791;50.992;13.788;2023-09-30T12:39:30;18.80;54.60
24664;DHT22;12791;50.992;13.788;2023-09-30T12:41:58;18.80;54.00
24664;DHT22;12791;50.992;13.788;2023-09-30T12:44:25;18.70;54.80
24664;DHT22;12791;50.992;13.788;2023-09-30T12:46:52;18.70;54.70
24664;DHT22;12791;50.992;13.788;2023-09-30T12:49:18;18.70;54.60
24664;DHT22;12791;50.992;13.788;2023-09-30T12:51:45;18.70;55.30
24664;DHT22;12791;50.992;13.788;2023-09-30T12:54:13;18.70;55.30
24664;DHT22;12791;50.992;13.788;2023-09-30T12:56:43;18.70;55.30
24664;DHT22;12791;50.992;13.788;2023-09-30T12:59:11;18.80;53.00
24664;DHT22;12791;50.992;13.788;2023-09-30T13:01:37;18.80;52.50
24664;DHT22;12791;50.992;13.788;2023-09-30T13:04:05;18.90;52.30
24664;DHT22;12791;50.992;13.788;2023-09-30T13:06:33;18.90;51.60
24664;DHT22;12791;50.992;13.788;2023-09-30T13:09:01;18.90;52.20
24664;DHT22;12791;50.992;13.788;2023-09-30T13:11:29;18.90;52.50
24664;DHT22;12791;50.992;13.788;2023-09-30T13:13:56;18.90;52.10
24664;DHT22;12791;50.992;13.788;2023-09-30T13:16:23;18.80;52.60
24664;DHT22;12791;50.992;13.788;2023-09-30T13:18:50;18.80;53.50
24664;DHT22;12791;50.992;13.788;2023-09-30T13:21:18;18.80;54.10
24664;DHT22;12791;50.992;13.788;2023-09-30T13:23:45;18.70;54.30
24664;DHT22;12791;50.992;13.788;2023-09-30T13:26:12;18.70;52.50
24664;DHT22;12791;50.992;13.788;2023-09-30T13:28:40;18.70;52.60
24664;DHT22;12791;50.992;13.788;2023-09-30T13:31:07;18.70;52.70
24664;DHT22;12791;50.992;13.788;2023-09-30T13:33:34;18.70;52.70
24664;DHT22;12791;50.992;13.788;2023-09-30T13:36:01;18.70;53.20
24664;DHT22;12791;50.992;13.788;2023-09-30T13:38:27;18.70;53.10
24664;DHT22;12791;50.992;13.788;2023-09-30T13:40:55;18.80;51.90
24664;DHT22;12791;50.992;13.788;2023-09-30T13:43:21;18.80;52.40
24664;DHT22;12791;50.992;13.788;2023-09-30T13:45:49;18.80;52.30
24664;DHT22;12791;50.992;13.788;2023-09-30T13:48:16;18.80;50.70
24664;DHT22;12791;50.992;13.788;2023-09-30T13:50:42;18.90;51.10
24664;DHT22;12791;50.992;13.788;2023-09-30T13:53:09;18.90;51.30
24664;DHT22;12791;50.992;13.788;2023-09-30T13:55:38;18.90;51.40
24664;DHT22;12791;50.992;13.788;2023-09-30T13:58:05;18.90;51.40
24664;DHT22;12791;50.992;13.788;2023-09-30T14:00:32;18.90;50.80
24664;DHT22;12791;50.992;13.788;2023-09-30T14:03:01;18.90;50.80
24664;DHT22;12791;50.992;13.788;2023-09-30T14:05:28;18.90;51.30
24664;DHT22;12791;50.992;13.788;2023-09-30T14:07:55;18.90;50.50
24664;DHT22;12791;50.992;13.788;2023-09-30T14:10:21;19.00;50.20
24664;DHT22;12791;50.992;13.788;2023-09-30T14:12:49;19.00;50.30
24664;DHT22;12791;50.992;13.788;2023-09-30T14:15:16;19.00;50.20
24664;DHT22;12791;50.992;13.788;2023-09-30T14:17:43;19.00;49.90
24664;DHT22;12791;50.992;13.788;2023-09-30T14:20:12;19.00;49.80
24664;DHT22;12791;50.992;13.788;2023-09-30T14:22:38;19.00;50.00
24664;DHT22;12791;50.992;13.788;2023-09-30T14:25:06;19.10;50.30
24664;DHT22;12791;50.992;13.788;2023-09-30T14:27:33;19.10;50.60
24664;DHT22;12791;50.992;13.788;2023-09-30T14:30:00;19.10;50.00
24664;DHT22;12791;50.992;13.788;2023-09-30T14:32:27;19.10;50.20
24664;DHT22;12791;50.992;13.788;2023-09-30T14:34:53;19.10;49.90
24664;DHT22;12791;50.992;13.788;2023-09-30T14:37:22;19.10;49.60
24664;DHT22;12791;50.992;13.788;2023-09-30T14:40:13;19.10;49.90
24664;DHT22;12791;50.992;13.788;2023-09-30T14:42:41;19.10;49.60
24664;DHT22;12791;50.992;13.788;2023-09-30T14:45:08;19.10;50.10
24664;DHT22;12791;50.992;13.788;2023-09-30T14:47:36;19.20;49.70
24664;DHT22;12791;50.992;13.788;2023-09-30T14:50:05;19.20;48.40
24664;DHT22;12791;50.992;13.788;2023-09-30T14:52:33;19.10;48.60
24664;DHT22;12791;50.992;13.788;2023-09-30T14:55:00;19.20;49.20
24664;DHT22;12791;50.992;13.788;2023-09-30T14:57:27;19.10;49.50
24664;DHT22;12791;50.992;13.788;2023-09-30T14:59:53;19.20;49.40
24664;DHT22;12791;50.992;13.788;2023-09-30T15:02:20;19.20;49.30
24664;DHT22;12791;50.992;13.788;2023-09-30T15:04:47;19.10;49.50
24664;DHT22;12791;50.992;13.788;2023-09-30T15:07:14;19.10;49.70
24664;DHT22;12791;50.992;13.788;2023-09-30T15:09:42;19.10;49.20
24664;DHT22;12791;50.992;13.788;2023-09-30T15:12:09;19.10;48.30
24664;DHT22;12791;50.992;13.788;2023-09-30T15:14:35;19.10;48.30
24664;DHT22;12791;50.992;13.788;2023-09-30T15:17:02;19.10;48.80
24664;DHT22;12791;50.992;13.788;2023-09-30T15:19:29;19.10;48.90
24664;DHT22;12791;50.992;13.788;2023-09-30T15:21:56;19.10;49.20
24664;DHT22;12791;50.992;13.788;2023-09-30T15:24:23;19.10;49.20
24664;DHT22;12791;50.992;13.788;2023-09-30T15:26:51;19.10;49.50
24664;DHT22;12791;50.992;13.788;2023-09-30T15:29:18;19.00;49.50
24664;DHT22;12791;50.992;13.788;2023-09-30T15:31:45;19.00;49.90
24664;DHT22;12791;50.992;13.788;2023-09-30T15:34:11;19.00;50.20
24664;DHT22;12791;50.992;13.788;2023-09-30T15:36:38;19.00;50.40
24664;DHT22;12791;50.992;13.788;2023-09-30T15:39:05;19.00;50.50
24664;DHT22;12791;50.992;13.788;2023-09-30T15:41:32;19.00;50.70
24664;DHT22;12791;50.992;13.788;2023-09-30T15:44:00;19.00;51.20
24664;DHT22;12791;50.992;13.788;2023-09-30T15:46:27;18.90;51.70
24664;DHT22;12791;50.992;13.788;2023-09-30T15:48:54;18.90;51.50
24664;DHT22;12791;50.992;13.788;2023-09-30T15:51:20;18.90;51.90
24664;DHT22;12791;50.992;13.788;2023-09-30T15:53:47;18.90;51.70
24664;DHT22;12791;50.992;13.788;2023-09-30T15:56:14;18.80;52.10
24664;DHT22;12791;50.992;13.788;2023-09-30T15:58:40;18.80;52.10
24664;DHT22;12791;50.992;13.788;2023-09-30T16:01:11;18.70;51.90
24664;DHT22;12791;50.992;13.788;2023-09-30T16:03:38;18.70;51.80
24664;DHT22;12791;50.992;13.788;2023-09-30T16:06:07;18.70;52.00
24664;DHT22;12791;50.992;13.788;2023-09-30T16:08:34;18.60;52.50
24664;DHT22;12791;50.992;13.788;2023-09-30T16:11:00;18.60;52.60
24664;DHT22;12791;50.992;13.788;2023-09-30T16:13:27;18.60;52.90
24664;DHT22;12791;50.992;13.788;2023-09-30T16:15:54;18.60;53.10
24664;DHT22;12791;50.992;13.788;2023-09-30T16:18:22;18.50;54.00
24664;DHT22;12791;50.992;13.788;2023-09-30T16:20:48;18.50;53.50
24664;DHT22;12791;50.992;13.788;2023-09-30T16:23:15;18.50;53.60
24664;DHT22;12791;50.992;13.788;2023-09-30T16:25:42;18.40;53.70
24664;DHT22;12791;50.992;13.788;2023-09-30T16:28:09;18.30;54.00
24664;DHT22;12791;50.992;13.788;2023-09-30T16:30:35;18.30;54.40
24664;DHT22;12791;50.992;13.788;2023-09-30T16:33:02;18.30;55.00
24664;DHT22;12791;50.992;13.788;2023-09-30T16:35:30;18.20;54.90
24664;DHT22;12791;50.992;13.788;2023-09-30T16:37:57;18.20;54.80
24664;DHT22;12791;50.992;13.788;2023-09-30T16:40:24;18.20;54.90
24664;DHT22;12791;50.992;13.788;2023-09-30T16:42:52;18.10;55.30
24664;DHT22;12791;50.992;13.788;2023-09-30T16:45:19;18.10;55.70
24664;DHT22;12791;50.992;13.788;2023-09-30T16:47:46;18.00;55.80
24664;DHT22;12791;50.992;13.788;2023-09-30T16:50:13;18.00;56.20
24664;DHT22;12791;50.992;13.788;2023-09-30T16:52:41;17.90;56.30
24664;DHT22;12791;50.992;13.788;2023-09-30T16:55:08;17.80;56.10
24664;DHT22;12791;50.992;13.788;2023-09-30T16:57:35;17.80;55.90
24664;DHT22;12791;50.992;13.788;2023-09-30T17:00:02;17.70;55.80
24664;DHT22;12791;50.992;13.788;2023-09-30T17:02:29;17.60;55.60
24664;DHT22;12791;50.992;13.788;2023-09-30T17:04:56;17.60;55.70
24664;DHT22;12791;50.992;13.788;2023-09-30T17:07:26;17.50;56.00
24664;DHT22;12791;50.992;13.788;2023-09-30T17:09:54;17.40;56.80
24664;DHT22;12791;50.992;13.788;2023-09-30T17:12:20;17.30;57.10
24664;DHT22;12791;50.992;13.788;2023-09-30T17:14:47;17.20;57.00
24664;DHT22;12791;50.992;13.788;2023-09-30T17:17:14;17.20;56.70
24664;DHT22;12791;50.992;13.788;2023-09-30T17:19:41;17.10;56.60
24664;DHT22;12791;50.992;13.788;2023-09-30T17:22:07;17.00;56.50
24664;DHT22;12791;50.992;13.788;2023-09-30T17:24:36;16.90;56.70
24664;DHT22;12791;50.992;13.788;2023-09-30T17:27:04;16.80;57.00
24664;DHT22;12791;50.992;13.788;2023-09-30T17:29:31;16.80;57.40
24664;DHT22;12791;50.992;13.788;2023-09-30T17:31:57;16.70;57.90
24664;DHT22;12791;50.992;13.788;2023-09-30T17:34:28;16.70;58.70
24664;DHT22;12791;50.992;13.788;2023-09-30T17:36:55;16.60;59.10
24664;DHT22;12791;50.992;13.788;2023-09-30T17:39:22;16.60;59.60
24664;DHT22;12791;50.992;13.788;2023-09-30T17:41:48;16.50;60.00
24664;DHT22;12791;50.992;13.788;2023-09-30T17:44:17;16.40;60.20
24664;DHT22;12791;50.992;13.788;2023-09-30T17:46:43;16.30;60.30
24664;DHT22;12791;50.992;13.788;2023-09-30T17:49:10;16.40;60.80
24664;DHT22;12791;50.992;13.788;2023-09-30T17:51:37;16.30;61.00
24664;DHT22;12791;50.992;13.788;2023-09-30T17:54:04;16.30;61.30
24664;DHT22;12791;50.992;13.788;2023-09-30T17:56:30;16.20;61.50
24664;DHT22;12791;50.992;13.788;2023-09-30T17:58:57;16.20;61.70
24664;DHT22;12791;50.992;13.788;2023-09-30T18:01:25;16.20;61.80
24664;DHT22;12791;50.992;13.788;2023-09-30T18:03:52;16.10;61.90
24664;DHT22;12791;50.992;13.788;2023-09-30T18:06:19;16.10;62.00
24664;DHT22;12791;50.992;13.788;2023-09-30T18:08:45;16.10;62.30
24664;DHT22;12791;50.992;13.788;2023-09-30T18:11:12;16.00;62.30
24664;DHT22;12791;50.992;13.788;2023-09-30T18:13:39;16.00;62.60
24664;DHT22;12791;50.992;13.788;2023-09-30T18:16:06;16.00;62.70
24664;DHT22;12791;50.992;13.788;2023-09-30T18:18:36;16.00;62.90
24664;DHT22;12791;50.992;13.788;2023-09-30T18:21:03;15.90;63.10
24664;DHT22;12791;50.992;13.788;2023-09-30T18:23:30;15.90;63.30
24664;DHT22;12791;50.992;13.788;2023-09-30T18:25:57;15.90;63.50
24664;DHT22;12791;50.992;13.788;2023-09-30T18:28:23;15.80;63.50